createdAt,value
2019-01-31T00:02:18.646Z,7.97
2019-01-31T00:05:08.517Z,7.00
2019-01-31T00:07:57.790Z,8.63
2019-01-31T00:10:56.242Z,8.43
2019-01-31T00:13:45.584Z,7.70
2019-01-31T00:16:42.112Z,7.90
2019-01-31T00:19:28.377Z,8.10
2019-01-31T00:22:27.750Z,7.63
2019-01-31T00:25:24.985Z,8.40
2019-01-31T00:28:27.692Z,7.17
2019-01-31T00:31:16.900Z,7.27
2019-01-31T00:33:57.101Z,7.70
2019-01-31T00:36:34.243Z,8.00
2019-01-31T00:39:29.362Z,6.70
2019-01-31T00:42:31.813Z,8.33
2019-01-31T00:45:18.917Z,7.63
2019-01-31T00:48:02.121Z,6.90
2019-01-31T00:50:41.972Z,8.50
2019-01-31T00:53:33.237Z,8.27
2019-01-31T00:56:34.864Z,10.00
2019-01-31T00:59:26.894Z,8.10
2019-01-31T01:02:18.123Z,8.43
2019-01-31T01:05:15.575Z,10.13
2019-01-31T01:08:08.549Z,11.90
2019-01-31T01:10:56.298Z,8.07
2019-01-31T01:13:39.822Z,11.70
2019-01-31T01:16:17.189Z,8.40
2019-01-31T01:19:00.552Z,8.20
2019-01-31T01:21:52.706Z,8.00
2019-01-31T01:24:39.240Z,7.00
2019-01-31T01:27:22.316Z,8.17
2019-01-31T01:30:02.776Z,6.77
2019-01-31T01:32:47.133Z,7.57
2019-01-31T01:35:27.083Z,7.30
2019-01-31T01:38:16.419Z,6.57
2019-01-31T01:41:16.386Z,7.40
2019-01-31T01:43:55.126Z,7.10
2019-01-31T01:46:45.762Z,7.27
2019-01-31T01:49:31.900Z,7.30
2019-01-31T01:52:12.348Z,7.53
2019-01-31T01:54:55.445Z,8.57
2019-01-31T01:57:44.496Z,7.83
2019-01-31T02:00:45.975Z,8.23
2019-01-31T02:03:36.958Z,7.57
2019-01-31T02:06:39.367Z,7.53
2019-01-31T02:09:16.224Z,8.00
2019-01-31T02:12:12.646Z,7.23
2019-01-31T02:14:56.064Z,8.73
2019-01-31T02:17:33.165Z,9.90
2019-01-31T02:20:19.210Z,9.87
2019-01-31T02:23:02.949Z,9.70
2019-01-31T02:26:04.582Z,9.60
2019-01-31T02:28:49.618Z,9.23
2019-01-31T02:31:38.649Z,10.33
2019-01-31T02:34:31.323Z,8.60
2019-01-31T02:37:11.437Z,10.27
2019-01-31T02:39:45.596Z,11.17
2019-01-31T02:42:26.709Z,12.27
2019-01-31T02:45:03.674Z,9.80
2019-01-31T02:47:43.991Z,10.47
2019-01-31T02:50:39.250Z,9.63
2019-01-31T02:53:13.462Z,8.93
2019-01-31T02:55:53.995Z,9.70
2019-01-31T02:58:46.331Z,11.17
2019-01-31T03:01:51.181Z,10.63
2019-01-31T03:04:29.340Z,9.30
2019-01-31T03:07:15.371Z,10.43
2019-01-31T03:10:02.363Z,9.17
2019-01-31T03:12:42.208Z,8.13
2019-01-31T03:15:22.164Z,8.63
2019-01-31T03:18:05.742Z,9.23
2019-01-31T03:21:07.747Z,9.50
2019-01-31T03:23:47.859Z,8.30
2019-01-31T03:26:50.801Z,8.73
2019-01-31T03:29:49.076Z,8.63
2019-01-31T03:32:32.350Z,7.87
2019-01-31T03:35:09.786Z,8.20
2019-01-31T03:38:03.115Z,8.73
2019-01-31T03:40:52.499Z,8.43
2019-01-31T03:43:32.308Z,8.30
2019-01-31T03:46:12.666Z,7.90
2019-01-31T03:49:00.293Z,7.60
2019-01-31T03:51:49.096Z,8.00
2019-01-31T03:54:38.351Z,8.37
2019-01-31T03:57:39.030Z,8.70
2019-01-31T04:00:22.394Z,10.30
2019-01-31T04:02:59.766Z,10.40
2019-01-31T04:05:40.173Z,7.77
2019-01-31T04:08:11.795Z,7.77
2019-01-31T04:10:43.631Z,7.23
2019-01-31T04:13:15.640Z,6.20
2019-01-31T04:15:47.633Z,7.20
2019-01-31T04:18:19.910Z,7.43
2019-01-31T04:20:52.476Z,7.13
2019-01-31T04:23:24.533Z,6.97
2019-01-31T04:25:56.270Z,7.60
2019-01-31T04:28:30.567Z,10.50
2019-01-31T04:31:00.973Z,8.10
2019-01-31T04:33:33.209Z,7.23
2019-01-31T04:36:05.374Z,7.20
2019-01-31T04:38:37.086Z,6.50
2019-01-31T04:41:08.669Z,7.17
2019-01-31T04:43:40.419Z,11.00
2019-01-31T04:46:12.418Z,7.40
2019-01-31T04:48:44.214Z,7.30
2019-01-31T04:51:15.848Z,7.20
2019-01-31T04:53:47.647Z,7.43
2019-01-31T04:56:19.872Z,7.03
2019-01-31T04:58:51.512Z,7.37
2019-01-31T05:01:26.367Z,7.37
2019-01-31T05:03:56.437Z,7.83
2019-01-31T05:06:28.494Z,9.30
2019-01-31T05:09:02.733Z,9.20
2019-01-31T05:11:34.010Z,9.57
2019-01-31T05:14:05.682Z,11.37
2019-01-31T05:16:37.833Z,10.33
2019-01-31T05:19:09.725Z,11.50
2019-01-31T05:21:41.525Z,10.10
2019-01-31T05:24:13.822Z,11.13
2019-01-31T05:26:46.494Z,11.87
2019-01-31T05:29:18.522Z,10.87
2019-01-31T05:31:50.251Z,8.77
2019-01-31T05:34:21.906Z,9.10
2019-01-31T05:36:53.487Z,8.87
2019-01-31T05:39:25.518Z,8.07
2019-01-31T05:41:57.147Z,8.57
2019-01-31T05:44:28.755Z,8.40
2019-01-31T05:47:03.251Z,7.93
2019-01-31T05:49:35.126Z,7.73
2019-01-31T05:52:06.868Z,7.23
2019-01-31T05:54:38.625Z,7.97
2019-01-31T05:57:10.467Z,8.23
2019-01-31T05:59:42.097Z,8.93
2019-01-31T06:02:13.719Z,7.87
2019-01-31T06:04:45.485Z,8.40
2019-01-31T06:07:17.399Z,8.80
2019-01-31T06:09:48.993Z,7.90
2019-01-31T06:12:20.616Z,8.30
2019-01-31T06:14:52.235Z,7.80
2019-01-31T06:17:23.997Z,7.67
2019-01-31T06:19:55.599Z,9.37
2019-01-31T06:22:27.230Z,7.97
2019-01-31T06:24:58.829Z,7.47
2019-01-31T06:27:30.495Z,7.70
2019-01-31T06:30:02.116Z,7.83
2019-01-31T06:32:33.731Z,7.70
2019-01-31T06:35:06.802Z,8.63
2019-01-31T06:37:38.621Z,7.67
2019-01-31T06:40:13.094Z,7.57
2019-01-31T06:42:45.293Z,7.73
2019-01-31T06:45:22.294Z,8.10
2019-01-31T06:47:53.922Z,7.07
2019-01-31T06:50:25.765Z,7.30
2019-01-31T06:52:58.224Z,7.67
2019-01-31T06:55:30.270Z,7.13
2019-01-31T06:58:02.564Z,7.50
2019-01-31T07:00:34.573Z,7.77
2019-01-31T07:03:06.410Z,8.33
2019-01-31T07:05:38.076Z,8.13
2019-01-31T07:08:10.725Z,8.03
2019-01-31T07:10:42.382Z,7.87
2019-01-31T07:13:14.057Z,8.73
2019-01-31T07:15:45.719Z,8.67
2019-01-31T07:18:18.203Z,8.67
2019-01-31T07:20:49.768Z,7.60
2019-01-31T07:23:21.473Z,7.87
2019-01-31T07:25:53.154Z,8.60
2019-01-31T07:28:24.882Z,8.67
2019-01-31T07:30:56.514Z,10.47
2019-01-31T07:33:28.228Z,9.43
2019-01-31T07:35:59.830Z,9.60
2019-01-31T07:38:31.487Z,10.33
2019-01-31T07:41:03.138Z,10.20
2019-01-31T07:43:34.801Z,10.03
2019-01-31T07:46:06.754Z,10.20
2019-01-31T07:48:39.050Z,10.03
2019-01-31T07:51:10.685Z,10.60
2019-01-31T07:53:42.343Z,11.00
2019-01-31T07:56:14.679Z,10.17
2019-01-31T07:58:46.426Z,11.57
2019-01-31T08:01:18.547Z,10.70
2019-01-31T08:04:01.979Z,9.97
2019-01-31T08:06:23.743Z,10.43
2019-01-31T08:08:55.704Z,10.13
2019-01-31T08:11:27.775Z,11.03
2019-01-31T08:13:59.544Z,10.13
2019-01-31T08:16:31.150Z,11.00
2019-01-31T08:19:02.718Z,10.80
2019-01-31T08:21:34.370Z,11.67
2019-01-31T08:24:09.289Z,13.37
2019-01-31T08:26:39.548Z,13.50
2019-01-31T08:29:12.805Z,12.87
2019-01-31T08:31:44.440Z,12.83
2019-01-31T08:34:16.044Z,13.20
2019-01-31T08:36:49.480Z,13.07
2019-01-31T08:39:21.240Z,12.97
2019-01-31T08:42:03.273Z,13.50
2019-01-31T08:44:25.935Z,15.13
2019-01-31T08:46:57.751Z,14.43
2019-01-31T08:49:29.507Z,14.37
2019-01-31T08:52:01.199Z,14.17
2019-01-31T08:54:32.867Z,13.27
2019-01-31T08:57:04.521Z,14.07
2019-01-31T08:59:36.255Z,14.30
2019-01-31T09:02:08.061Z,14.03
2019-01-31T09:04:39.708Z,14.20
2019-01-31T09:07:11.440Z,14.33
2019-01-31T09:09:43.126Z,14.40
2019-01-31T09:12:15.627Z,14.00
2019-01-31T09:14:47.663Z,14.10
2019-01-31T09:17:19.295Z,12.47
2019-01-31T09:19:50.855Z,15.37
2019-01-31T09:22:25.410Z,14.60
2019-01-31T09:25:02.394Z,13.90
2019-01-31T09:28:03.739Z,15.00
2019-01-31T09:30:49.859Z,13.90
2019-01-31T09:33:47.950Z,15.00
2019-01-31T09:36:31.225Z,14.23
2019-01-31T09:39:23.411Z,14.67
2019-01-31T09:42:26.301Z,14.03
2019-01-31T09:45:09.715Z,14.13
2019-01-31T09:47:52.784Z,14.37
2019-01-31T09:50:54.348Z,14.43
2019-01-31T09:53:48.282Z,14.27
2019-01-31T09:56:44.818Z,14.13
2019-01-31T09:59:24.821Z,15.20
2019-01-31T10:02:10.819Z,15.43
2019-01-31T10:04:56.918Z,15.23
2019-01-31T10:07:43.211Z,15.60
2019-01-31T10:10:43.157Z,16.37
2019-01-31T10:13:20.457Z,16.37
2019-01-31T10:16:21.572Z,17.40
2019-01-31T10:19:04.820Z,17.43
2019-01-31T10:21:47.666Z,18.07
2019-01-31T10:24:34.306Z,18.83
2019-01-31T10:27:14.480Z,22.10
2019-01-31T10:30:00.688Z,26.80
2019-01-31T10:32:56.194Z,25.47
2019-01-31T10:35:33.075Z,23.27
2019-01-31T10:38:13.291Z,22.30
2019-01-31T10:40:53.023Z,20.90
2019-01-31T10:43:32.862Z,19.47
2019-01-31T10:46:18.837Z,19.57
2019-01-31T10:49:11.019Z,20.03
2019-01-31T10:51:53.737Z,18.43
2019-01-31T10:54:35.144Z,20.47
2019-01-31T10:57:30.634Z,20.90
2019-01-31T11:00:06.271Z,21.10
2019-01-31T11:02:56.687Z,23.13
2019-01-31T11:05:47.639Z,23.57
2019-01-31T11:08:30.674Z,24.77
2019-01-31T11:11:10.471Z,28.50
2019-01-31T11:14:11.725Z,30.17
2019-01-31T11:17:09.795Z,30.87
2019-01-31T11:19:59.118Z,31.00
2019-01-31T11:22:48.617Z,32.87
2019-01-31T11:25:26.675Z,33.77
2019-01-31T11:28:03.473Z,34.43
2019-01-31T11:30:58.923Z,35.73
2019-01-31T11:33:33.075Z,34.47
2019-01-31T11:36:07.284Z,33.03
2019-01-31T11:39:20.674Z,35.17
2019-01-31T11:42:11.151Z,33.43
2019-01-31T11:45:00.282Z,31.60
2019-01-31T11:47:50.654Z,31.23
2019-01-31T11:50:47.596Z,33.73
2019-01-31T11:53:27.460Z,33.23
2019-01-31T11:56:11.313Z,35.47
2019-01-31T11:58:54.269Z,31.70
2019-01-31T12:01:25.922Z,33.57
2019-01-31T12:03:59.393Z,32.83
2019-01-31T12:06:31.214Z,30.37
2019-01-31T12:09:02.859Z,32.53
2019-01-31T12:11:34.494Z,32.17
2019-01-31T12:14:06.457Z,36.37
2019-01-31T12:16:38.188Z,33.70
2019-01-31T12:19:09.971Z,35.27
2019-01-31T12:21:42.585Z,33.07
2019-01-31T12:24:16.450Z,31.77
2019-01-31T12:26:47.596Z,31.23
2019-01-31T12:29:19.516Z,30.43
2019-01-31T12:31:51.355Z,29.77
2019-01-31T12:34:22.987Z,30.60
2019-01-31T12:36:54.551Z,30.53
2019-01-31T12:39:26.252Z,29.27
2019-01-31T12:41:58.704Z,30.47
2019-01-31T12:44:30.523Z,30.83
2019-01-31T12:47:03.828Z,30.53
2019-01-31T12:49:40.287Z,28.87
2019-01-31T12:52:12.247Z,25.73
2019-01-31T12:54:58.109Z,28.23
2019-01-31T12:57:32.015Z,30.93
2019-01-31T13:00:04.732Z,35.63
2019-01-31T13:02:36.348Z,36.33
2019-01-31T13:05:10.864Z,30.37
2019-01-31T13:07:47.544Z,29.43
2019-01-31T13:10:20.825Z,29.73
2019-01-31T13:12:53.878Z,22.70
2019-01-31T13:15:29.284Z,23.93
2019-01-31T13:18:00.179Z,22.57
2019-01-31T13:20:31.899Z,23.40
2019-01-31T13:23:04.226Z,25.77
2019-01-31T13:25:36.015Z,22.53
2019-01-31T13:28:07.751Z,26.07
2019-01-31T13:30:39.409Z,22.90
2019-01-31T13:33:11.030Z,19.53
2019-01-31T13:35:42.651Z,21.93
2019-01-31T13:38:14.356Z,22.00
2019-01-31T13:40:46.037Z,22.63
2019-01-31T13:43:17.885Z,22.47
2019-01-31T13:45:49.683Z,21.07
2019-01-31T13:48:21.564Z,23.03
2019-01-31T13:50:53.252Z,22.17
2019-01-31T13:53:25.027Z,24.20
2019-01-31T13:55:56.772Z,20.87
2019-01-31T13:58:28.856Z,20.43
2019-01-31T14:01:00.709Z,19.90
2019-01-31T14:03:32.643Z,20.53
2019-01-31T14:06:04.741Z,19.10
2019-01-31T14:08:37.703Z,19.93
2019-01-31T14:11:09.427Z,18.93
2019-01-31T14:13:42.357Z,20.63
2019-01-31T14:16:14.873Z,18.07
2019-01-31T14:18:47.662Z,20.50
2019-01-31T14:21:20.436Z,18.33
2019-01-31T14:23:53.569Z,17.87
2019-01-31T14:26:25.785Z,17.70
2019-01-31T14:28:57.406Z,16.17
2019-01-31T14:31:29.607Z,17.53
2019-01-31T14:34:01.243Z,18.27
2019-01-31T14:36:33.188Z,16.10
2019-01-31T14:39:05.921Z,13.40
2019-01-31T14:41:37.793Z,15.97
2019-01-31T14:44:19.861Z,16.00
2019-01-31T14:46:42.665Z,15.77
2019-01-31T14:49:15.055Z,15.33
2019-01-31T14:51:49.648Z,18.03
2019-01-31T14:54:21.689Z,15.07
2019-01-31T14:56:54.004Z,17.43
2019-01-31T14:59:25.864Z,13.97
2019-01-31T15:01:57.498Z,14.87
2019-01-31T15:04:29.307Z,10.67
2019-01-31T15:07:02.968Z,12.83
2019-01-31T15:09:35.995Z,12.07
2019-01-31T15:12:08.416Z,13.67
2019-01-31T15:14:40.429Z,13.87
2019-01-31T15:17:15.281Z,14.17
2019-01-31T15:19:48.169Z,15.43
2019-01-31T15:22:20.244Z,12.97
2019-01-31T15:24:56.500Z,12.87
2019-01-31T15:27:29.755Z,15.73
2019-01-31T15:30:02.836Z,15.60
2019-01-31T15:32:34.746Z,12.40
2019-01-31T15:35:09.446Z,16.33
2019-01-31T15:37:41.142Z,14.50
2019-01-31T15:40:18.947Z,14.70
2019-01-31T15:42:50.874Z,14.70
2019-01-31T15:45:22.568Z,14.07
2019-01-31T15:47:54.502Z,13.63
2019-01-31T15:50:26.776Z,11.20
2019-01-31T15:52:58.424Z,12.73
2019-01-31T15:55:30.737Z,12.43
2019-01-31T15:58:02.456Z,13.37
2019-01-31T16:00:52.546Z,12.33
2019-01-31T16:03:45.638Z,11.80
2019-01-31T16:06:47.710Z,12.60
2019-01-31T16:09:34.877Z,11.93
2019-01-31T16:12:13.337Z,11.33
2019-01-31T16:14:54.460Z,12.77
2019-01-31T16:17:18.599Z,12.17
2019-01-31T16:20:01.576Z,13.40
2019-01-31T16:22:41.309Z,11.57
2019-01-31T16:25:14.261Z,12.50
2019-01-31T16:27:46.844Z,12.10
2019-01-31T16:30:21.157Z,12.07
2019-01-31T16:32:56.818Z,19.90
2019-01-31T16:35:30.173Z,14.17
2019-01-31T16:38:01.990Z,13.73
2019-01-31T16:40:33.767Z,11.17
2019-01-31T16:43:05.725Z,13.00
2019-01-31T16:45:38.510Z,13.10
2019-01-31T16:48:10.301Z,12.07
2019-01-31T16:50:43.601Z,13.80
2019-01-31T16:53:17.970Z,12.00
2019-01-31T16:55:50.275Z,11.17
2019-01-31T16:58:21.993Z,11.15
2019-01-31T17:00:53.665Z,10.18
2019-01-31T17:03:25.595Z,8.48
2019-01-31T17:05:57.883Z,10.53
2019-01-31T17:08:30.269Z,10.55
2019-01-31T17:11:01.992Z,11.12
2019-01-31T17:13:33.615Z,9.15
2019-01-31T17:16:05.409Z,11.28
2019-01-31T17:18:37.260Z,10.30
2019-01-31T17:21:09.005Z,10.13
2019-01-31T17:23:40.916Z,10.68
2019-01-31T17:26:13.801Z,11.28
2019-01-31T17:28:45.780Z,10.77
2019-01-31T17:31:18.232Z,9.83
2019-01-31T17:33:51.476Z,10.32
2019-01-31T17:36:25.679Z,11.65
2019-01-31T17:38:57.366Z,10.48
2019-01-31T17:41:28.929Z,10.90
2019-01-31T17:44:01.021Z,11.40
2019-01-31T17:46:32.716Z,15.63
2019-01-31T17:49:06.509Z,12.60
2019-01-31T17:51:38.976Z,10.93
2019-01-31T17:54:12.902Z,12.55
2019-01-31T17:56:45.981Z,11.10
2019-01-31T18:02:11.521Z,9.88
2019-01-31T18:04:44.085Z,10.40
2019-01-31T18:07:16.924Z,12.10
2019-01-31T18:09:49.567Z,10.82
2019-01-31T18:12:21.576Z,11.57
2019-01-31T18:14:53.936Z,11.85
2019-01-31T18:17:26.572Z,10.65
2019-01-31T18:20:00.509Z,10.55
2019-01-31T18:22:32.631Z,9.13
2019-01-31T18:25:04.696Z,9.38
2019-01-31T18:27:37.212Z,9.05
2019-01-31T18:30:15.032Z,10.38
2019-01-31T18:32:50.518Z,8.58
2019-01-31T18:35:25.976Z,8.33
2019-01-31T18:37:59.391Z,8.63
2019-01-31T18:40:34.358Z,10.25
2019-01-31T18:43:07.166Z,7.65
2019-01-31T18:45:39.420Z,9.60
2019-01-31T18:48:11.681Z,8.68
2019-01-31T18:50:44.762Z,7.78
2019-01-31T18:53:16.864Z,6.75
2019-01-31T18:55:51.313Z,7.28
2019-01-31T18:58:23.645Z,8.00
2019-01-31T19:00:56.674Z,7.50
2019-01-31T19:03:28.840Z,6.55
2019-01-31T19:06:01.066Z,7.75
2019-01-31T19:08:37.060Z,5.17
2019-01-31T19:11:09.526Z,6.80
2019-01-31T19:13:41.756Z,8.70
2019-01-31T19:16:14.031Z,11.25
2019-01-31T19:18:47.053Z,7.50
2019-01-31T19:21:19.624Z,9.10
2019-01-31T19:23:52.057Z,7.42
2019-01-31T19:26:25.233Z,7.53
2019-01-31T19:28:58.883Z,7.70
2019-01-31T19:31:31.373Z,7.67
2019-01-31T19:34:03.753Z,7.55
2019-01-31T19:36:35.943Z,7.42
2019-01-31T19:39:10.771Z,6.67
2019-01-31T19:41:43.165Z,7.45
2019-01-31T19:44:15.326Z,7.00
2019-01-31T19:46:47.839Z,7.03
2019-01-31T19:49:20.220Z,5.97
2019-01-31T19:51:53.687Z,6.83
2019-01-31T19:54:25.534Z,10.53
2019-01-31T19:56:57.764Z,8.43
2019-01-31T19:59:31.536Z,8.10
2019-01-31T20:02:04.815Z,7.75
2019-01-31T20:04:37.283Z,8.20
2019-01-31T20:07:09.935Z,7.92
2019-01-31T20:09:42.181Z,7.78
2019-01-31T20:12:14.203Z,7.92
2019-01-31T20:14:46.240Z,7.85
2019-01-31T20:17:18.584Z,9.18
2019-01-31T20:19:50.514Z,7.70
2019-01-31T20:22:22.568Z,7.08
2019-01-31T20:24:56.818Z,8.95
2019-01-31T20:27:29.375Z,8.73
2019-01-31T20:30:02.999Z,7.12
2019-01-31T20:35:43.668Z,7.95
2019-01-31T20:38:15.754Z,6.83
2019-01-31T20:40:49.507Z,7.80
2019-01-31T20:43:21.608Z,8.45
2019-01-31T20:45:54.177Z,8.08
2019-01-31T20:48:27.672Z,6.80
2019-01-31T20:51:01.284Z,6.95
2019-01-31T20:53:34.415Z,6.87
2019-01-31T20:56:06.184Z,7.33
2019-01-31T20:58:38.953Z,6.30
2019-01-31T21:01:11.333Z,6.15
2019-01-31T21:03:43.314Z,10.13
2019-01-31T21:06:15.039Z,7.92
2019-01-31T21:08:47.451Z,8.18
2019-01-31T21:11:20.371Z,7.67
2019-01-31T21:13:52.741Z,7.75
2019-01-31T21:16:25.267Z,7.80
2019-01-31T21:18:57.071Z,8.28
2019-01-31T21:21:28.867Z,6.80
2019-01-31T21:24:01.684Z,7.00
2019-01-31T21:26:36.316Z,7.78
2019-01-31T21:29:08.287Z,7.60
2019-01-31T21:31:41.655Z,8.25
2019-01-31T21:34:14.365Z,10.25
2019-01-31T21:36:46.130Z,8.83
2019-01-31T21:39:17.799Z,9.68
2019-01-31T21:41:49.742Z,8.70
2019-01-31T21:44:21.596Z,8.93
2019-01-31T21:47:02.926Z,8.10
2019-01-31T21:49:29.361Z,9.03
2019-01-31T21:52:01.007Z,9.80
2019-01-31T21:54:32.724Z,8.73
2019-01-31T21:57:04.530Z,8.90
2019-01-31T21:59:36.194Z,9.80
2019-01-31T22:02:08.509Z,8.00
2019-01-31T22:04:40.193Z,9.38
2019-01-31T22:07:11.835Z,13.62
2019-01-31T22:09:44.440Z,8.50
2019-01-31T22:12:16.327Z,11.38
2019-01-31T22:14:48.133Z,25.43
2019-01-31T22:17:19.925Z,24.65
2019-01-31T22:19:51.728Z,30.70
2019-01-31T22:22:23.643Z,26.70
2019-01-31T22:24:55.876Z,26.27
2019-01-31T22:27:27.612Z,29.18
2019-01-31T22:29:59.432Z,27.22
2019-01-31T22:32:31.729Z,27.05
2019-01-31T22:35:03.436Z,23.87
2019-01-31T22:37:35.678Z,27.32
2019-01-31T22:40:13.054Z,26.77
2019-01-31T22:42:45.515Z,24.33
2019-01-31T22:45:22.216Z,26.60
2019-01-31T22:47:54.687Z,23.53
2019-01-31T22:50:27.692Z,23.97
2019-01-31T22:52:59.560Z,28.70
2019-01-31T22:55:31.359Z,42.60
2019-01-31T22:58:04.427Z,29.47
2019-01-31T23:00:45.592Z,28.67
2019-01-31T23:03:17.465Z,26.60
2019-01-31T23:05:49.114Z,26.97
2019-01-31T23:08:20.740Z,25.67
2019-01-31T23:10:52.952Z,29.27
2019-01-31T23:13:26.783Z,26.67
2019-01-31T23:15:58.592Z,27.60
2019-01-31T23:18:30.317Z,28.13
2019-01-31T23:21:02.531Z,28.07
2019-01-31T23:23:34.743Z,31.70
2019-01-31T23:26:07.325Z,29.30
2019-01-31T23:28:38.982Z,28.13
2019-01-31T23:31:10.767Z,31.13
2019-01-31T23:33:42.760Z,31.00
2019-01-31T23:36:14.450Z,28.10
2019-01-31T23:38:46.123Z,33.33
2019-01-31T23:41:18.288Z,31.90
2019-01-31T23:43:50.312Z,34.73
2019-01-31T23:46:21.978Z,32.10
2019-01-31T23:48:53.648Z,31.00
2019-01-31T23:51:25.546Z,32.53
2019-01-31T23:53:57.375Z,33.37
2019-01-31T23:56:29.201Z,35.60
2019-01-31T23:59:01.296Z,33.97
